sensor_id;sensor_type;location;lat;lon;timestamp;P1;durP1;ratioP1;P2;durP2;ratioP2
22359;SDS011;11347;52.030;4.690;2022-11-14T00:00:07;5.50;;;3.70;;
22359;SDS011;11347;52.030;4.690;2022-11-14T00:02:36;8.30;;;3.80;;
22359;SDS011;11347;52.030;4.690;2022-11-14T00:05:02;6.80;;;3.70;;
22359;SDS011;11347;52.030;4.690;2022-11-14T00:07:31;5.50;;;3.83;;
22359;SDS011;11347;52.030;4.690;2022-11-14T00:09:57;6.67;;;3.63;;
22359;SDS011;11347;52.030;4.690;2022-11-14T00:12:23;5.77;;;3.63;;
22359;SDS011;11347;52.030;4.690;2022-11-14T00:14:48;6.03;;;3.50;;
22359;SDS011;11347;52.030;4.690;2022-11-14T00:17:15;6.47;;;3.30;;
22359;SDS011;11347;52.030;4.690;2022-11-14T00:19:41;6.80;;;4.00;;
22359;SDS011;11347;52.030;4.690;2022-11-14T00:22:07;5.77;;;3.60;;
22359;SDS011;11347;52.030;4.690;2022-11-14T00:24:32;6.23;;;3.60;;
22359;SDS011;11347;52.030;4.690;2022-11-14T00:26:58;6.67;;;3.60;;
22359;SDS011;11347;52.030;4.690;2022-11-14T00:29:23;5.40;;;3.33;;
22359;SDS011;11347;52.030;4.690;2022-11-14T00:31:49;6.43;;;3.80;;
22359;SDS011;11347;52.030;4.690;2022-11-14T00:34:14;5.73;;;3.57;;
22359;SDS011;11347;52.030;4.690;2022-11-14T00:36:40;5.73;;;3.60;;
22359;SDS011;11347;52.030;4.690;2022-11-14T00:39:05;5.13;;;3.20;;
22359;SDS011;11347;52.030;4.690;2022-11-14T00:41:31;5.53;;;3.27;;
22359;SDS011;11347;52.030;4.690;2022-11-14T00:43:56;5.20;;;3.30;;
22359;SDS011;11347;52.030;4.690;2022-11-14T00:46:22;5.40;;;3.20;;
22359;SDS011;11347;52.030;4.690;2022-11-14T00:48:47;4.93;;;3.00;;
22359;SDS011;11347;52.030;4.690;2022-11-14T00:51:13;5.20;;;3.20;;
22359;SDS011;11347;52.030;4.690;2022-11-14T00:53:38;5.03;;;3.00;;
22359;SDS011;11347;52.030;4.690;2022-11-14T00:56:04;5.37;;;3.17;;
22359;SDS011;11347;52.030;4.690;2022-11-14T00:58:30;4.37;;;2.57;;
22359;SDS011;11347;52.030;4.690;2022-11-14T01:00:55;5.07;;;2.80;;
22359;SDS011;11347;52.030;4.690;2022-11-14T01:03:21;7.00;;;3.20;;
22359;SDS011;11347;52.030;4.690;2022-11-14T01:05:47;5.20;;;2.87;;
22359;SDS011;11347;52.030;4.690;2022-11-14T01:08:15;4.80;;;2.73;;
22359;SDS011;11347;52.030;4.690;2022-11-14T01:10:43;4.97;;;2.83;;
22359;SDS011;11347;52.030;4.690;2022-11-14T01:13:10;6.37;;;3.13;;
22359;SDS011;11347;52.030;4.690;2022-11-14T01:15:37;4.83;;;2.80;;
22359;SDS011;11347;52.030;4.690;2022-11-14T01:18:04;5.07;;;2.93;;
22359;SDS011;11347;52.030;4.690;2022-11-14T01:20:29;5.00;;;2.87;;
22359;SDS011;11347;52.030;4.690;2022-11-14T01:22:55;5.27;;;3.20;;
22359;SDS011;11347;52.030;4.690;2022-11-14T01:25:21;4.80;;;3.10;;
22359;SDS011;11347;52.030;4.690;2022-11-14T01:27:46;4.47;;;2.93;;
22359;SDS011;11347;52.030;4.690;2022-11-14T01:30:12;5.10;;;3.00;;
22359;SDS011;11347;52.030;4.690;2022-11-14T01:32:37;6.73;;;3.00;;
22359;SDS011;11347;52.030;4.690;2022-11-14T01:35:03;4.50;;;2.83;;
22359;SDS011;11347;52.030;4.690;2022-11-14T01:37:29;4.70;;;3.10;;
22359;SDS011;11347;52.030;4.690;2022-11-14T01:39:54;6.23;;;2.70;;
22359;SDS011;11347;52.030;4.690;2022-11-14T01:42:20;5.43;;;3.00;;
22359;SDS011;11347;52.030;4.690;2022-11-14T01:44:49;5.90;;;3.50;;
22359;SDS011;11347;52.030;4.690;2022-11-14T01:47:19;4.77;;;2.83;;
22359;SDS011;11347;52.030;4.690;2022-11-14T01:49:52;5.23;;;2.90;;
22359;SDS011;11347;52.030;4.690;2022-11-14T01:52:23;4.77;;;2.70;;
22359;SDS011;11347;52.030;4.690;2022-11-14T01:54:52;4.83;;;2.87;;
22359;SDS011;11347;52.030;4.690;2022-11-14T01:57:23;4.93;;;2.93;;
22359;SDS011;11347;52.030;4.690;2022-11-14T01:59:53;5.23;;;2.87;;
22359;SDS011;11347;52.030;4.690;2022-11-14T02:02:22;4.37;;;2.77;;
22359;SDS011;11347;52.030;4.690;2022-11-14T02:04:50;4.83;;;3.03;;
22359;SDS011;11347;52.030;4.690;2022-11-14T02:07:21;5.47;;;3.30;;
22359;SDS011;11347;52.030;4.690;2022-11-14T02:09:49;4.43;;;3.07;;
22359;SDS011;11347;52.030;4.690;2022-11-14T02:12:16;4.13;;;2.90;;
22359;SDS011;11347;52.030;4.690;2022-11-14T02:14:44;3.83;;;2.80;;
22359;SDS011;11347;52.030;4.690;2022-11-14T02:17:12;4.60;;;2.83;;
22359;SDS011;11347;52.030;4.690;2022-11-14T02:20:23;5.37;;;3.10;;
22359;SDS011;11347;52.030;4.690;2022-11-14T02:22:27;5.33;;;3.17;;
22359;SDS011;11347;52.030;4.690;2022-11-14T02:24:53;4.67;;;2.93;;
22359;SDS011;11347;52.030;4.690;2022-11-14T02:27:18;5.93;;;2.97;;
22359;SDS011;11347;52.030;4.690;2022-11-14T02:29:44;5.60;;;3.03;;
22359;SDS011;11347;52.030;4.690;2022-11-14T02:32:10;6.03;;;2.87;;
22359;SDS011;11347;52.030;4.690;2022-11-14T02:34:35;5.87;;;3.23;;
22359;SDS011;11347;52.030;4.690;2022-11-14T02:37:01;4.90;;;2.90;;
22359;SDS011;11347;52.030;4.690;2022-11-14T02:39:27;5.73;;;3.20;;
22359;SDS011;11347;52.030;4.690;2022-11-14T02:41:52;6.37;;;2.90;;
22359;SDS011;11347;52.030;4.690;2022-11-14T02:44:18;5.57;;;2.90;;
22359;SDS011;11347;52.030;4.690;2022-11-14T02:46:44;4.80;;;2.90;;
22359;SDS011;11347;52.030;4.690;2022-11-14T02:49:09;5.43;;;3.00;;
22359;SDS011;11347;52.030;4.690;2022-11-14T02:51:35;5.93;;;2.80;;
22359;SDS011;11347;52.030;4.690;2022-11-14T02:54:00;7.60;;;2.90;;
22359;SDS011;11347;52.030;4.690;2022-11-14T02:56:26;5.87;;;3.17;;
22359;SDS011;11347;52.030;4.690;2022-11-14T02:58:52;6.03;;;3.07;;
22359;SDS011;11347;52.030;4.690;2022-11-14T03:01:17;4.27;;;2.70;;
22359;SDS011;11347;52.030;4.690;2022-11-14T03:03:43;5.30;;;2.93;;
22359;SDS011;11347;52.030;4.690;2022-11-14T03:06:08;5.73;;;3.00;;
22359;SDS011;11347;52.030;4.690;2022-11-14T03:08:34;6.33;;;2.87;;
22359;SDS011;11347;52.030;4.690;2022-11-14T03:11:03;4.10;;;2.90;;
22359;SDS011;11347;52.030;4.690;2022-11-14T03:13:30;4.57;;;3.10;;
22359;SDS011;11347;52.030;4.690;2022-11-14T03:15:55;6.57;;;3.10;;
22359;SDS011;11347;52.030;4.690;2022-11-14T03:18:21;5.30;;;3.30;;
22359;SDS011;11347;52.030;4.690;2022-11-14T03:20:46;5.20;;;3.20;;
22359;SDS011;11347;52.030;4.690;2022-11-14T03:23:12;6.00;;;3.10;;
22359;SDS011;11347;52.030;4.690;2022-11-14T03:25:37;6.03;;;3.30;;
22359;SDS011;11347;52.030;4.690;2022-11-14T03:28:03;6.40;;;3.23;;
22359;SDS011;11347;52.030;4.690;2022-11-14T03:30:29;4.70;;;3.13;;
22359;SDS011;11347;52.030;4.690;2022-11-14T03:32:55;6.50;;;3.70;;
22359;SDS011;11347;52.030;4.690;2022-11-14T03:35:21;7.80;;;3.73;;
22359;SDS011;11347;52.030;4.690;2022-11-14T03:37:47;8.67;;;3.47;;
22359;SDS011;11347;52.030;4.690;2022-11-14T03:40:13;6.43;;;3.57;;
22359;SDS011;11347;52.030;4.690;2022-11-14T03:42:38;7.47;;;3.70;;
22359;SDS011;11347;52.030;4.690;2022-11-14T03:45:04;6.30;;;3.57;;
22359;SDS011;11347;52.030;4.690;2022-11-14T03:47:30;4.57;;;3.13;;
22359;SDS011;11347;52.030;4.690;2022-11-14T03:49:55;5.53;;;3.53;;
22359;SDS011;11347;52.030;4.690;2022-11-14T03:52:21;6.53;;;4.00;;
22359;SDS011;11347;52.030;4.690;2022-11-14T03:54:46;8.43;;;3.93;;
22359;SDS011;11347;52.030;4.690;2022-11-14T03:57:12;7.90;;;3.90;;
22359;SDS011;11347;52.030;4.690;2022-11-14T03:59:37;6.60;;;4.10;;
22359;SDS011;11347;52.030;4.690;2022-11-14T04:02:03;6.70;;;3.90;;
22359;SDS011;11347;52.030;4.690;2022-11-14T04:04:28;6.57;;;3.73;;
22359;SDS011;11347;52.030;4.690;2022-11-14T04:06:54;6.43;;;4.10;;
22359;SDS011;11347;52.030;4.690;2022-11-14T04:09:19;5.63;;;3.77;;
22359;SDS011;11347;52.030;4.690;2022-11-14T04:11:45;6.10;;;3.77;;
22359;SDS011;11347;52.030;4.690;2022-11-14T04:14:10;11.47;;;4.07;;
22359;SDS011;11347;52.030;4.690;2022-11-14T04:16:36;8.30;;;4.20;;
22359;SDS011;11347;52.030;4.690;2022-11-14T04:19:01;7.27;;;4.07;;
22359;SDS011;11347;52.030;4.690;2022-11-14T04:21:27;7.37;;;4.20;;
22359;SDS011;11347;52.030;4.690;2022-11-14T04:23:53;8.10;;;4.30;;
22359;SDS011;11347;52.030;4.690;2022-11-14T04:26:18;9.83;;;4.60;;
22359;SDS011;11347;52.030;4.690;2022-11-14T04:28:44;7.60;;;4.17;;
22359;SDS011;11347;52.030;4.690;2022-11-14T04:31:09;7.27;;;4.23;;
22359;SDS011;11347;52.030;4.690;2022-11-14T04:33:35;6.63;;;4.33;;
22359;SDS011;11347;52.030;4.690;2022-11-14T04:36:00;8.53;;;4.73;;
22359;SDS011;11347;52.030;4.690;2022-11-14T04:38:26;6.63;;;4.40;;
22359;SDS011;11347;52.030;4.690;2022-11-14T04:40:52;8.80;;;4.70;;
22359;SDS011;11347;52.030;4.690;2022-11-14T04:43:18;6.77;;;4.27;;
22359;SDS011;11347;52.030;4.690;2022-11-14T04:45:44;7.63;;;4.63;;
22359;SDS011;11347;52.030;4.690;2022-11-14T04:48:10;8.53;;;4.70;;
22359;SDS011;11347;52.030;4.690;2022-11-14T04:50:36;8.90;;;4.60;;
22359;SDS011;11347;52.030;4.690;2022-11-14T04:53:02;7.57;;;4.63;;
22359;SDS011;11347;52.030;4.690;2022-11-14T04:55:28;8.80;;;4.70;;
22359;SDS011;11347;52.030;4.690;2022-11-14T04:57:54;8.63;;;4.70;;
22359;SDS011;11347;52.030;4.690;2022-11-14T05:00:21;10.30;;;4.87;;
22359;SDS011;11347;52.030;4.690;2022-11-14T05:02:47;9.43;;;5.10;;
22359;SDS011;11347;52.030;4.690;2022-11-14T05:05:13;8.67;;;5.10;;
22359;SDS011;11347;52.030;4.690;2022-11-14T05:07:39;8.73;;;4.97;;
22359;SDS011;11347;52.030;4.690;2022-11-14T05:10:04;9.10;;;5.17;;
22359;SDS011;11347;52.030;4.690;2022-11-14T05:12:30;8.67;;;5.43;;
22359;SDS011;11347;52.030;4.690;2022-11-14T05:14:56;9.13;;;5.43;;
22359;SDS011;11347;52.030;4.690;2022-11-14T05:17:22;9.40;;;5.50;;
22359;SDS011;11347;52.030;4.690;2022-11-14T05:19:47;9.33;;;5.17;;
22359;SDS011;11347;52.030;4.690;2022-11-14T05:22:13;7.13;;;4.80;;
22359;SDS011;11347;52.030;4.690;2022-11-14T05:24:38;8.47;;;5.10;;
22359;SDS011;11347;52.030;4.690;2022-11-14T05:27:04;7.80;;;5.00;;
22359;SDS011;11347;52.030;4.690;2022-11-14T05:29:29;8.47;;;5.20;;
22359;SDS011;11347;52.030;4.690;2022-11-14T05:31:55;8.33;;;5.13;;
22359;SDS011;11347;52.030;4.690;2022-11-14T05:34:22;9.67;;;5.57;;
22359;SDS011;11347;52.030;4.690;2022-11-14T05:36:47;9.60;;;5.50;;
22359;SDS011;11347;52.030;4.690;2022-11-14T05:39:13;9.97;;;5.20;;
22359;SDS011;11347;52.030;4.690;2022-11-14T05:41:40;8.20;;;5.07;;
22359;SDS011;11347;52.030;4.690;2022-11-14T05:44:05;9.90;;;5.63;;
22359;SDS011;11347;52.030;4.690;2022-11-14T05:46:31;8.90;;;5.20;;
22359;SDS011;11347;52.030;4.690;2022-11-14T05:48:56;8.47;;;5.13;;
22359;SDS011;11347;52.030;4.690;2022-11-14T05:51:22;9.93;;;5.73;;
22359;SDS011;11347;52.030;4.690;2022-11-14T05:53:47;8.70;;;5.50;;
22359;SDS011;11347;52.030;4.690;2022-11-14T05:56:13;8.67;;;5.30;;
22359;SDS011;11347;52.030;4.690;2022-11-14T05:58:39;8.10;;;5.40;;
22359;SDS011;11347;52.030;4.690;2022-11-14T06:03:36;9.33;;;5.63;;
22359;SDS011;11347;52.030;4.690;2022-11-14T06:06:04;10.97;;;5.73;;
22359;SDS011;11347;52.030;4.690;2022-11-14T06:08:31;9.07;;;5.77;;
22359;SDS011;11347;52.030;4.690;2022-11-14T06:11:02;11.23;;;5.80;;
22359;SDS011;11347;52.030;4.690;2022-11-14T06:13:32;9.17;;;5.67;;
22359;SDS011;11347;52.030;4.690;2022-11-14T06:15:59;8.60;;;5.47;;
22359;SDS011;11347;52.030;4.690;2022-11-14T06:18:26;10.53;;;6.10;;
22359;SDS011;11347;52.030;4.690;2022-11-14T06:20:52;12.93;;;6.20;;
22359;SDS011;11347;52.030;4.690;2022-11-14T06:23:18;10.03;;;5.33;;
22359;SDS011;11347;52.030;4.690;2022-11-14T06:25:44;10.63;;;6.43;;
22359;SDS011;11347;52.030;4.690;2022-11-14T06:28:09;11.17;;;6.10;;
22359;SDS011;11347;52.030;4.690;2022-11-14T06:30:35;12.40;;;5.93;;
22359;SDS011;11347;52.030;4.690;2022-11-14T06:33:00;10.90;;;6.53;;
22359;SDS011;11347;52.030;4.690;2022-11-14T06:35:26;10.90;;;6.10;;
22359;SDS011;11347;52.030;4.690;2022-11-14T06:37:52;10.70;;;5.93;;
22359;SDS011;11347;52.030;4.690;2022-11-14T06:40:18;8.87;;;5.70;;
22359;SDS011;11347;52.030;4.690;2022-11-14T06:42:43;9.97;;;5.57;;
22359;SDS011;11347;52.030;4.690;2022-11-14T06:45:09;10.77;;;6.27;;
22359;SDS011;11347;52.030;4.690;2022-11-14T06:47:35;13.87;;;6.40;;
22359;SDS011;11347;52.030;4.690;2022-11-14T06:50:00;10.20;;;5.87;;
22359;SDS011;11347;52.030;4.690;2022-11-14T06:52:26;11.77;;;6.27;;
22359;SDS011;11347;52.030;4.690;2022-11-14T06:54:51;11.37;;;6.33;;
22359;SDS011;11347;52.030;4.690;2022-11-14T06:57:17;9.43;;;5.87;;
22359;SDS011;11347;52.030;4.690;2022-11-14T06:59:43;10.50;;;6.50;;
22359;SDS011;11347;52.030;4.690;2022-11-14T07:02:10;10.87;;;6.13;;
22359;SDS011;11347;52.030;4.690;2022-11-14T07:04:37;10.77;;;5.90;;
22359;SDS011;11347;52.030;4.690;2022-11-14T07:07:02;12.10;;;6.00;;
22359;SDS011;11347;52.030;4.690;2022-11-14T07:09:28;8.73;;;5.80;;
22359;SDS011;11347;52.030;4.690;2022-11-14T07:11:53;11.40;;;6.13;;
22359;SDS011;11347;52.030;4.690;2022-11-14T07:14:19;11.63;;;6.47;;
22359;SDS011;11347;52.030;4.690;2022-11-14T07:16:44;9.70;;;6.03;;
22359;SDS011;11347;52.030;4.690;2022-11-14T07:19:10;9.73;;;5.70;;
22359;SDS011;11347;52.030;4.690;2022-11-14T07:21:36;9.83;;;6.13;;
22359;SDS011;11347;52.030;4.690;2022-11-14T07:24:02;11.30;;;6.37;;
22359;SDS011;11347;52.030;4.690;2022-11-14T07:26:28;10.77;;;6.37;;
22359;SDS011;11347;52.030;4.690;2022-11-14T07:28:53;9.73;;;6.30;;
22359;SDS011;11347;52.030;4.690;2022-11-14T07:31:19;10.33;;;5.50;;
22359;SDS011;11347;52.030;4.690;2022-11-14T07:33:45;11.83;;;6.17;;
22359;SDS011;11347;52.030;4.690;2022-11-14T07:36:12;10.93;;;6.10;;
22359;SDS011;11347;52.030;4.690;2022-11-14T07:38:38;9.07;;;5.83;;
22359;SDS011;11347;52.030;4.690;2022-11-14T07:41:05;9.97;;;6.20;;
22359;SDS011;11347;52.030;4.690;2022-11-14T07:43:35;11.40;;;6.00;;
22359;SDS011;11347;52.030;4.690;2022-11-14T07:46:01;10.83;;;6.10;;
22359;SDS011;11347;52.030;4.690;2022-11-14T07:48:29;12.40;;;6.23;;
22359;SDS011;11347;52.030;4.690;2022-11-14T07:50:59;11.80;;;6.37;;
22359;SDS011;11347;52.030;4.690;2022-11-14T07:53:26;12.83;;;6.50;;
22359;SDS011;11347;52.030;4.690;2022-11-14T07:55:52;12.57;;;6.57;;
22359;SDS011;11347;52.030;4.690;2022-11-14T07:58:18;9.37;;;5.97;;
22359;SDS011;11347;52.030;4.690;2022-11-14T08:00:44;10.27;;;6.27;;
22359;SDS011;11347;52.030;4.690;2022-11-14T08:03:09;9.83;;;6.13;;
22359;SDS011;11347;52.030;4.690;2022-11-14T08:05:35;11.57;;;6.03;;
22359;SDS011;11347;52.030;4.690;2022-11-14T08:08:01;9.10;;;5.70;;
22359;SDS011;11347;52.030;4.690;2022-11-14T08:10:27;10.80;;;5.97;;
22359;SDS011;11347;52.030;4.690;2022-11-14T08:12:56;9.30;;;5.60;;
22359;SDS011;11347;52.030;4.690;2022-11-14T08:15:23;9.73;;;6.07;;
22359;SDS011;11347;52.030;4.690;2022-11-14T08:17:49;12.40;;;6.17;;
22359;SDS011;11347;52.030;4.690;2022-11-14T08:20:15;14.07;;;6.60;;
22359;SDS011;11347;52.030;4.690;2022-11-14T08:22:40;9.57;;;5.90;;
22359;SDS011;11347;52.030;4.690;2022-11-14T08:25:06;9.23;;;5.70;;
22359;SDS011;11347;52.030;4.690;2022-11-14T08:27:31;10.27;;;5.80;;
22359;SDS011;11347;52.030;4.690;2022-11-14T08:29:57;10.07;;;5.77;;
22359;SDS011;11347;52.030;4.690;2022-11-14T08:32:23;9.27;;;5.77;;
22359;SDS011;11347;52.030;4.690;2022-11-14T08:34:48;8.00;;;5.43;;
22359;SDS011;11347;52.030;4.690;2022-11-14T08:37:14;10.50;;;5.67;;
22359;SDS011;11347;52.030;4.690;2022-11-14T08:39:39;11.27;;;5.90;;
22359;SDS011;11347;52.030;4.690;2022-11-14T08:42:05;10.17;;;5.77;;
22359;SDS011;11347;52.030;4.690;2022-11-14T08:44:30;10.67;;;6.20;;
22359;SDS011;11347;52.030;4.690;2022-11-14T08:46:56;10.60;;;6.00;;
22359;SDS011;11347;52.030;4.690;2022-11-14T08:49:24;9.93;;;6.00;;
22359;SDS011;11347;52.030;4.690;2022-11-14T08:51:50;10.83;;;5.67;;
22359;SDS011;11347;52.030;4.690;2022-11-14T08:54:16;8.73;;;5.63;;
22359;SDS011;11347;52.030;4.690;2022-11-14T08:56:42;11.10;;;5.77;;
22359;SDS011;11347;52.030;4.690;2022-11-14T08:59:08;8.10;;;5.30;;
22359;SDS011;11347;52.030;4.690;2022-11-14T09:01:34;10.70;;;5.40;;
22359;SDS011;11347;52.030;4.690;2022-11-14T09:03:59;8.53;;;5.50;;
22359;SDS011;11347;52.030;4.690;2022-11-14T09:06:25;9.33;;;5.60;;
22359;SDS011;11347;52.030;4.690;2022-11-14T09:08:51;9.07;;;5.30;;
22359;SDS011;11347;52.030;4.690;2022-11-14T09:11:16;8.43;;;5.53;;
22359;SDS011;11347;52.030;4.690;2022-11-14T09:13:42;8.80;;;5.00;;
22359;SDS011;11347;52.030;4.690;2022-11-14T09:16:07;8.47;;;5.33;;
22359;SDS011;11347;52.030;4.690;2022-11-14T09:18:33;11.53;;;5.57;;
22359;SDS011;11347;52.030;4.690;2022-11-14T09:21:00;10.17;;;5.20;;
22359;SDS011;11347;52.030;4.690;2022-11-14T09:23:27;10.70;;;5.30;;
22359;SDS011;11347;52.030;4.690;2022-11-14T09:25:52;10.23;;;5.53;;
22359;SDS011;11347;52.030;4.690;2022-11-14T09:28:18;7.37;;;4.47;;
22359;SDS011;11347;52.030;4.690;2022-11-14T09:30:44;7.47;;;4.97;;
22359;SDS011;11347;52.030;4.690;2022-11-14T09:33:10;7.67;;;4.80;;
22359;SDS011;11347;52.030;4.690;2022-11-14T09:35:35;8.70;;;5.00;;
22359;SDS011;11347;52.030;4.690;2022-11-14T09:38:02;8.63;;;4.80;;
22359;SDS011;11347;52.030;4.690;2022-11-14T09:40:30;8.03;;;4.67;;
22359;SDS011;11347;52.030;4.690;2022-11-14T09:46:20;7.40;;;4.37;;
22359;SDS011;11347;52.030;4.690;2022-11-14T09:48:48;8.07;;;4.57;;
22359;SDS011;11347;52.030;4.690;2022-11-14T09:51:24;7.13;;;4.57;;
22359;SDS011;11347;52.030;4.690;2022-11-14T09:56:44;7.90;;;4.50;;
22359;SDS011;11347;52.030;4.690;2022-11-14T09:59:10;8.53;;;5.10;;
22359;SDS011;11347;52.030;4.690;2022-11-14T10:04:24;8.20;;;4.63;;
22359;SDS011;11347;52.030;4.690;2022-11-14T10:12:42;7.77;;;4.10;;
22359;SDS011;11347;52.030;4.690;2022-11-14T10:18:34;7.77;;;4.43;;
22359;SDS011;11347;52.030;4.690;2022-11-14T10:21:35;6.30;;;3.93;;
22359;SDS011;11347;52.030;4.690;2022-11-14T10:24:04;6.93;;;4.30;;
22359;SDS011;11347;52.030;4.690;2022-11-14T10:26:56;6.80;;;3.90;;
22359;SDS011;11347;52.030;4.690;2022-11-14T10:37:28;8.37;;;4.10;;
22359;SDS011;11347;52.030;4.690;2022-11-14T10:40:03;6.83;;;4.23;;
22359;SDS011;11347;52.030;4.690;2022-11-14T10:42:48;7.33;;;3.90;;
22359;SDS011;11347;52.030;4.690;2022-11-14T10:48:19;6.47;;;3.53;;
22359;SDS011;11347;52.030;4.690;2022-11-14T10:50:55;6.50;;;3.50;;
22359;SDS011;11347;52.030;4.690;2022-11-14T10:56:03;6.63;;;3.77;;
22359;SDS011;11347;52.030;4.690;2022-11-14T10:58:29;6.83;;;3.73;;
22359;SDS011;11347;52.030;4.690;2022-11-14T11:00:55;4.87;;;3.33;;
22359;SDS011;11347;52.030;4.690;2022-11-14T11:03:24;7.43;;;4.00;;
22359;SDS011;11347;52.030;4.690;2022-11-14T11:06:08;5.87;;;3.20;;
22359;SDS011;11347;52.030;4.690;2022-11-14T11:08:50;7.23;;;3.63;;
22359;SDS011;11347;52.030;4.690;2022-11-14T11:11:35;6.90;;;3.50;;
22359;SDS011;11347;52.030;4.690;2022-11-14T11:14:03;5.43;;;3.43;;
22359;SDS011;11347;52.030;4.690;2022-11-14T11:16:29;8.50;;;4.00;;
22359;SDS011;11347;52.030;4.690;2022-11-14T11:19:12;6.70;;;3.60;;
22359;SDS011;11347;52.030;4.690;2022-11-14T11:21:46;5.63;;;3.40;;
22359;SDS011;11347;52.030;4.690;2022-11-14T11:24:28;6.67;;;3.60;;
22359;SDS011;11347;52.030;4.690;2022-11-14T11:27:12;5.73;;;3.20;;
22359;SDS011;11347;52.030;4.690;2022-11-14T11:30:06;6.47;;;3.67;;
22359;SDS011;11347;52.030;4.690;2022-11-14T11:32:32;6.77;;;3.47;;
22359;SDS011;11347;52.030;4.690;2022-11-14T11:34:59;4.73;;;3.30;;
22359;SDS011;11347;52.030;4.690;2022-11-14T11:39:55;6.57;;;3.27;;
22359;SDS011;11347;52.030;4.690;2022-11-14T11:42:25;4.97;;;3.23;;
22359;SDS011;11347;52.030;4.690;2022-11-14T11:45:04;6.53;;;3.47;;
22359;SDS011;11347;52.030;4.690;2022-11-14T11:47:41;5.53;;;3.30;;
22359;SDS011;11347;52.030;4.690;2022-11-14T11:50:17;5.43;;;3.43;;
22359;SDS011;11347;52.030;4.690;2022-11-14T11:52:47;8.07;;;3.13;;
22359;SDS011;11347;52.030;4.690;2022-11-14T11:55:31;6.13;;;3.47;;
22359;SDS011;11347;52.030;4.690;2022-11-14T12:00:33;4.67;;;2.83;;
22359;SDS011;11347;52.030;4.690;2022-11-14T12:02:59;4.47;;;2.90;;
22359;SDS011;11347;52.030;4.690;2022-11-14T12:08:08;6.97;;;3.73;;
22359;SDS011;11347;52.030;4.690;2022-11-14T12:10:41;5.27;;;3.23;;
22359;SDS011;11347;52.030;4.690;2022-11-14T12:16:05;5.77;;;3.27;;
22359;SDS011;11347;52.030;4.690;2022-11-14T12:26:31;7.10;;;3.47;;
22359;SDS011;11347;52.030;4.690;2022-11-14T12:31:40;5.33;;;2.90;;
22359;SDS011;11347;52.030;4.690;2022-11-14T12:34:13;6.17;;;3.03;;
22359;SDS011;11347;52.030;4.690;2022-11-14T12:36:48;5.47;;;3.30;;
22359;SDS011;11347;52.030;4.690;2022-11-14T12:39:23;6.60;;;3.67;;
22359;SDS011;11347;52.030;4.690;2022-11-14T12:41:50;4.70;;;3.00;;
22359;SDS011;11347;52.030;4.690;2022-11-14T12:47:10;4.73;;;2.70;;
22359;SDS011;11347;52.030;4.690;2022-11-14T13:00:40;4.93;;;2.77;;
22359;SDS011;11347;52.030;4.690;2022-11-14T13:03:40;5.47;;;3.07;;
22359;SDS011;11347;52.030;4.690;2022-11-14T13:06:25;4.40;;;2.90;;
22359;SDS011;11347;52.030;4.690;2022-11-14T13:11:51;5.20;;;2.97;;
22359;SDS011;11347;52.030;4.690;2022-11-14T13:15:20;6.60;;;2.97;;
22359;SDS011;11347;52.030;4.690;2022-11-14T13:17:40;6.50;;;3.20;;
22359;SDS011;11347;52.030;4.690;2022-11-14T13:20:26;5.10;;;3.10;;
22359;SDS011;11347;52.030;4.690;2022-11-14T13:33:55;4.93;;;3.00;;
22359;SDS011;11347;52.030;4.690;2022-11-14T13:39:02;5.47;;;3.10;;
22359;SDS011;11347;52.030;4.690;2022-11-14T13:44:23;4.57;;;3.00;;
22359;SDS011;11347;52.030;4.690;2022-11-14T13:50:14;7.87;;;2.90;;
22359;SDS011;11347;52.030;4.690;2022-11-14T13:52:44;5.13;;;2.93;;
22359;SDS011;11347;52.030;4.690;2022-11-14T13:55:30;5.80;;;2.80;;
22359;SDS011;11347;52.030;4.690;2022-11-14T14:06:21;5.17;;;3.10;;
22359;SDS011;11347;52.030;4.690;2022-11-14T14:20:46;4.43;;;2.90;;
22359;SDS011;11347;52.030;4.690;2022-11-14T14:23:16;6.17;;;3.30;;
22359;SDS011;11347;52.030;4.690;2022-11-14T14:31:39;5.40;;;3.40;;
22359;SDS011;11347;52.030;4.690;2022-11-14T14:36:55;5.77;;;3.33;;
22359;SDS011;11347;52.030;4.690;2022-11-14T14:39:22;6.00;;;3.10;;
22359;SDS011;11347;52.030;4.690;2022-11-14T14:41:50;6.23;;;3.37;;
22359;SDS011;11347;52.030;4.690;2022-11-14T14:44:20;5.93;;;3.20;;
22359;SDS011;11347;52.030;4.690;2022-11-14T14:46:49;5.37;;;3.23;;
22359;SDS011;11347;52.030;4.690;2022-11-14T14:49:17;5.07;;;2.60;;
22359;SDS011;11347;52.030;4.690;2022-11-14T14:51:51;6.47;;;3.20;;
22359;SDS011;11347;52.030;4.690;2022-11-14T14:54:20;5.20;;;3.30;;
22359;SDS011;11347;52.030;4.690;2022-11-14T14:56:54;4.43;;;3.00;;
22359;SDS011;11347;52.030;4.690;2022-11-14T14:59:26;6.47;;;2.90;;
22359;SDS011;11347;52.030;4.690;2022-11-14T15:01:53;5.33;;;3.10;;
22359;SDS011;11347;52.030;4.690;2022-11-14T15:04:20;5.80;;;3.10;;
22359;SDS011;11347;52.030;4.690;2022-11-14T15:06:48;4.80;;;3.07;;
22359;SDS011;11347;52.030;4.690;2022-11-14T15:09:20;6.00;;;3.50;;
22359;SDS011;11347;52.030;4.690;2022-11-14T15:11:51;5.43;;;3.30;;
22359;SDS011;11347;52.030;4.690;2022-11-14T15:14:23;6.17;;;3.87;;
22359;SDS011;11347;52.030;4.690;2022-11-14T15:16:51;6.47;;;4.30;;
22359;SDS011;11347;52.030;4.690;2022-11-14T15:19:20;6.67;;;4.20;;
22359;SDS011;11347;52.030;4.690;2022-11-14T15:22:17;7.63;;;4.43;;
22359;SDS011;11347;52.030;4.690;2022-11-14T15:27:30;13.70;;;5.43;;
22359;SDS011;11347;52.030;4.690;2022-11-14T15:30:03;10.27;;;5.50;;
22359;SDS011;11347;52.030;4.690;2022-11-14T15:32:30;8.80;;;4.90;;
22359;SDS011;11347;52.030;4.690;2022-11-14T15:40:35;10.77;;;6.17;;
22359;SDS011;11347;52.030;4.690;2022-11-14T15:45:59;10.33;;;6.53;;
22359;SDS011;11347;52.030;4.690;2022-11-14T15:48:25;12.13;;;6.93;;
22359;SDS011;11347;52.030;4.690;2022-11-14T15:50:50;12.33;;;6.57;;
22359;SDS011;11347;52.030;4.690;2022-11-14T15:55:47;11.10;;;7.00;;
22359;SDS011;11347;52.030;4.690;2022-11-14T15:58:13;12.37;;;7.73;;
22359;SDS011;11347;52.030;4.690;2022-11-14T16:00:43;13.07;;;8.10;;
22359;SDS011;11347;52.030;4.690;2022-11-14T16:03:17;14.23;;;7.83;;
22359;SDS011;11347;52.030;4.690;2022-11-14T16:05:44;11.23;;;7.60;;
22359;SDS011;11347;52.030;4.690;2022-11-14T16:08:10;12.93;;;7.67;;
22359;SDS011;11347;52.030;4.690;2022-11-14T16:10:37;10.70;;;7.17;;
22359;SDS011;11347;52.030;4.690;2022-11-14T16:13:02;11.73;;;7.60;;
22359;SDS011;11347;52.030;4.690;2022-11-14T16:15:28;12.10;;;7.70;;
22359;SDS011;11347;52.030;4.690;2022-11-14T16:17:54;12.37;;;7.77;;
22359;SDS011;11347;52.030;4.690;2022-11-14T16:20:21;10.70;;;7.53;;
22359;SDS011;11347;52.030;4.690;2022-11-14T16:22:51;12.90;;;7.97;;
22359;SDS011;11347;52.030;4.690;2022-11-14T16:25:19;12.07;;;8.23;;
22359;SDS011;11347;52.030;4.690;2022-11-14T16:27:49;13.17;;;8.57;;
22359;SDS011;11347;52.030;4.690;2022-11-14T16:30:15;12.73;;;8.57;;
22359;SDS011;11347;52.030;4.690;2022-11-14T16:32:43;12.80;;;8.60;;
22359;SDS011;11347;52.030;4.690;2022-11-14T16:35:13;14.57;;;8.60;;
22359;SDS011;11347;52.030;4.690;2022-11-14T16:37:41;13.00;;;8.70;;
22359;SDS011;11347;52.030;4.690;2022-11-14T16:40:12;13.83;;;8.10;;
22359;SDS011;11347;52.030;4.690;2022-11-14T16:42:49;14.37;;;8.47;;
22359;SDS011;11347;52.030;4.690;2022-11-14T16:45:17;13.90;;;8.83;;
22359;SDS011;11347;52.030;4.690;2022-11-14T16:47:46;14.50;;;8.50;;
22359;SDS011;11347;52.030;4.690;2022-11-14T16:50:12;11.20;;;8.13;;
22359;SDS011;11347;52.030;4.690;2022-11-14T16:52:38;13.97;;;8.83;;
22359;SDS011;11347;52.030;4.690;2022-11-14T16:55:04;13.17;;;8.33;;
22359;SDS011;11347;52.030;4.690;2022-11-14T16:57:31;13.93;;;8.80;;
22359;SDS011;11347;52.030;4.690;2022-11-14T16:59:57;12.87;;;8.50;;
22359;SDS011;11347;52.030;4.690;2022-11-14T17:02:22;13.23;;;8.33;;
22359;SDS011;11347;52.030;4.690;2022-11-14T17:04:48;14.90;;;9.03;;